Current | Forecast
Updated: 8:00 AM JST on June 21, 2018
Observed at Niigata Airport, Japan
Temperature 70°F
Humidity 88%
Dew Point 66°F
Wind WSW at 7 mph
Pressure 29.59 in (Steady)
Conditions Mostly Cloudy
Visibility 6.2 miles
UV 3 out of 16
Clouds (FEW) : 500 ft
Mostly Cloudy (BKN) : 1500 ft
Mostly Cloudy (BKN) : 7000 ft
Yesterday's Maximum 77°F
Yesterday's Minimum 68°F approx.
Yesterday's Cooling Degree Days 8 approx.
Sunrise4:23 AM JST
Sunset7:12 PM JST
Moon Rise12:24 PM JST
Moon Set12:12 AM JST
Moon PhaseMoon Phase
First Quarter
Raw METARMETAR RJSN 202300Z 24006KT 210V270 9999 FEW005 BKN015 BKN070 21/19 Q1002


Monday
. High: 75° F.
Tuesday
. High: 71° F.
Wednesday
. High: 62° F.
Thursday
. High: 66° F.
Friday
. High: 71° F.
Saturday
. High: 62° F.
Sunday
. High: 64° F.
Monday
. High: 60° F.

Units: English | Metric

Find the Weather for any City, State or Zipcode, or Country:

U.S. State List | Severe Weather | Tropical Storms | Ski Conditions
United States | Canada | Central America | South America | Asia | Europe | Australia | Africa | Islands

Weather Underground

© Copyright 2018
The Weather Company, LLC